sensor_id;sensor_type;location;lat;lon;timestamp;P1;durP1;ratioP1;P2;durP2;ratioP2
17365;SDS011;8800;50.118;9.900;2023-04-25T00:00:30;6.60;;;4.20;;
17365;SDS011;8800;50.118;9.900;2023-04-25T00:02:56;4.53;;;3.55;;
17365;SDS011;8800;50.118;9.900;2023-04-25T00:05:25;6.70;;;4.00;;
17365;SDS011;8800;50.118;9.900;2023-04-25T00:07:51;9.00;;;4.95;;
17365;SDS011;8800;50.118;9.900;2023-04-25T00:10:19;17.00;;;11.43;;
17365;SDS011;8800;50.118;9.900;2023-04-25T00:12:46;17.88;;;11.63;;
17365;SDS011;8800;50.118;9.900;2023-04-25T00:15:12;8.35;;;4.97;;
17365;SDS011;8800;50.118;9.900;2023-04-25T00:17:39;10.35;;;5.80;;
17365;SDS011;8800;50.118;9.900;2023-04-25T00:20:06;10.07;;;5.65;;
17365;SDS011;8800;50.118;9.900;2023-04-25T00:22:34;19.98;;;8.07;;
17365;SDS011;8800;50.118;9.900;2023-04-25T00:25:02;14.93;;;7.00;;
17365;SDS011;8800;50.118;9.900;2023-04-25T00:27:30;9.65;;;4.57;;
17365;SDS011;8800;50.118;9.900;2023-04-25T00:29:56;8.25;;;3.95;;
17365;SDS011;8800;50.118;9.900;2023-04-25T00:32:22;7.72;;;4.10;;
17365;SDS011;8800;50.118;9.900;2023-04-25T00:34:49;7.53;;;3.90;;
17365;SDS011;8800;50.118;9.900;2023-04-25T00:37:15;8.07;;;4.30;;
17365;SDS011;8800;50.118;9.900;2023-04-25T00:39:43;8.50;;;4.40;;
17365;SDS011;8800;50.118;9.900;2023-04-25T00:42:09;6.28;;;4.05;;
17365;SDS011;8800;50.118;9.900;2023-04-25T00:44:37;9.40;;;5.00;;
17365;SDS011;8800;50.118;9.900;2023-04-25T00:47:04;11.90;;;5.43;;
17365;SDS011;8800;50.118;9.900;2023-04-25T00:49:30;7.97;;;4.63;;
17365;SDS011;8800;50.118;9.900;2023-04-25T00:51:57;8.43;;;5.05;;
17365;SDS011;8800;50.118;9.900;2023-04-25T00:54:23;8.77;;;4.57;;
17365;SDS011;8800;50.118;9.900;2023-04-25T00:56:50;8.75;;;5.50;;
17365;SDS011;8800;50.118;9.900;2023-04-25T00:59:16;7.93;;;5.03;;
17365;SDS011;8800;50.118;9.900;2023-04-25T01:01:44;7.03;;;4.57;;
17365;SDS011;8800;50.118;9.900;2023-04-25T01:04:11;9.35;;;5.05;;
17365;SDS011;8800;50.118;9.900;2023-04-25T01:06:37;7.15;;;5.15;;
17365;SDS011;8800;50.118;9.900;2023-04-25T01:09:04;7.45;;;4.85;;
17365;SDS011;8800;50.118;9.900;2023-04-25T01:11:30;9.38;;;5.78;;
17365;SDS011;8800;50.118;9.900;2023-04-25T01:13:57;9.75;;;5.88;;
17365;SDS011;8800;50.118;9.900;2023-04-25T01:16:23;9.38;;;5.43;;
17365;SDS011;8800;50.118;9.900;2023-04-25T01:18:51;9.98;;;5.05;;
17365;SDS011;8800;50.118;9.900;2023-04-25T01:21:19;7.82;;;5.30;;
17365;SDS011;8800;50.118;9.900;2023-04-25T01:23:46;7.60;;;5.28;;
17365;SDS011;8800;50.118;9.900;2023-04-25T01:26:12;7.22;;;5.07;;
17365;SDS011;8800;50.118;9.900;2023-04-25T01:28:39;9.30;;;5.55;;
17365;SDS011;8800;50.118;9.900;2023-04-25T01:31:06;8.65;;;5.32;;
17365;SDS011;8800;50.118;9.900;2023-04-25T01:33:33;8.43;;;5.68;;
17365;SDS011;8800;50.118;9.900;2023-04-25T01:35:59;9.50;;;5.30;;
17365;SDS011;8800;50.118;9.900;2023-04-25T01:38:27;12.48;;;5.85;;
17365;SDS011;8800;50.118;9.900;2023-04-25T01:40:54;9.73;;;5.50;;
17365;SDS011;8800;50.118;9.900;2023-04-25T01:43:21;10.52;;;5.68;;
17365;SDS011;8800;50.118;9.900;2023-04-25T01:45:47;9.43;;;6.15;;
17365;SDS011;8800;50.118;9.900;2023-04-25T01:48:15;12.50;;;6.25;;
17365;SDS011;8800;50.118;9.900;2023-04-25T01:50:41;11.52;;;6.57;;
17365;SDS011;8800;50.118;9.900;2023-04-25T01:53:08;9.88;;;6.35;;
17365;SDS011;8800;50.118;9.900;2023-04-25T01:55:36;10.70;;;5.85;;
17365;SDS011;8800;50.118;9.900;2023-04-25T01:58:02;10.02;;;6.20;;
17365;SDS011;8800;50.118;9.900;2023-04-25T02:00:34;9.70;;;5.90;;
17365;SDS011;8800;50.118;9.900;2023-04-25T02:03:00;11.63;;;6.57;;
17365;SDS011;8800;50.118;9.900;2023-04-25T02:05:26;15.10;;;7.65;;
17365;SDS011;8800;50.118;9.900;2023-04-25T02:07:54;11.55;;;6.32;;
17365;SDS011;8800;50.118;9.900;2023-04-25T02:10:20;11.68;;;6.30;;
17365;SDS011;8800;50.118;9.900;2023-04-25T02:12:48;10.02;;;6.18;;
17365;SDS011;8800;50.118;9.900;2023-04-25T02:15:14;9.98;;;6.78;;
17365;SDS011;8800;50.118;9.900;2023-04-25T02:17:41;11.70;;;6.78;;
17365;SDS011;8800;50.118;9.900;2023-04-25T02:20:07;9.35;;;5.95;;
17365;SDS011;8800;50.118;9.900;2023-04-25T02:22:35;10.35;;;6.32;;
17365;SDS011;8800;50.118;9.900;2023-04-25T02:25:01;8.13;;;5.57;;
17365;SDS011;8800;50.118;9.900;2023-04-25T02:27:28;8.18;;;5.00;;
17365;SDS011;8800;50.118;9.900;2023-04-25T02:29:56;10.25;;;6.00;;
17365;SDS011;8800;50.118;9.900;2023-04-25T02:32:22;9.57;;;5.32;;
17365;SDS011;8800;50.118;9.900;2023-04-25T02:34:49;8.60;;;5.72;;
17365;SDS011;8800;50.118;9.900;2023-04-25T02:37:15;8.77;;;5.20;;
17365;SDS011;8800;50.118;9.900;2023-04-25T02:39:41;14.45;;;7.18;;
17365;SDS011;8800;50.118;9.900;2023-04-25T02:42:08;12.85;;;7.68;;
17365;SDS011;8800;50.118;9.900;2023-04-25T02:44:34;13.23;;;7.10;;
17365;SDS011;8800;50.118;9.900;2023-04-25T02:47:02;13.55;;;7.18;;
17365;SDS011;8800;50.118;9.900;2023-04-25T02:49:28;10.23;;;6.63;;
17365;SDS011;8800;50.118;9.900;2023-04-25T02:51:55;11.60;;;7.03;;
17365;SDS011;8800;50.118;9.900;2023-04-25T02:54:21;13.75;;;8.10;;
17365;SDS011;8800;50.118;9.900;2023-04-25T02:56:47;13.38;;;7.63;;
17365;SDS011;8800;50.118;9.900;2023-04-25T02:59:14;13.32;;;7.63;;
17365;SDS011;8800;50.118;9.900;2023-04-25T03:01:40;12.63;;;6.40;;
17365;SDS011;8800;50.118;9.900;2023-04-25T03:04:08;11.95;;;6.50;;
17365;SDS011;8800;50.118;9.900;2023-04-25T03:06:34;10.68;;;5.88;;
17365;SDS011;8800;50.118;9.900;2023-04-25T03:09:02;9.25;;;5.97;;
17365;SDS011;8800;50.118;9.900;2023-04-25T03:11:29;8.95;;;5.95;;
17365;SDS011;8800;50.118;9.900;2023-04-25T03:13:55;10.77;;;6.07;;
17365;SDS011;8800;50.118;9.900;2023-04-25T03:16:22;8.85;;;5.80;;
17365;SDS011;8800;50.118;9.900;2023-04-25T03:18:48;8.80;;;5.15;;
17365;SDS011;8800;50.118;9.900;2023-04-25T03:21:17;8.93;;;5.53;;
17365;SDS011;8800;50.118;9.900;2023-04-25T03:23:43;7.55;;;5.13;;
17365;SDS011;8800;50.118;9.900;2023-04-25T03:26:10;9.10;;;5.07;;
17365;SDS011;8800;50.118;9.900;2023-04-25T03:28:36;9.32;;;5.30;;
17365;SDS011;8800;50.118;9.900;2023-04-25T03:31:02;7.03;;;4.55;;
17365;SDS011;8800;50.118;9.900;2023-04-25T03:33:29;10.63;;;5.53;;
17365;SDS011;8800;50.118;9.900;2023-04-25T03:35:55;9.25;;;5.70;;
17365;SDS011;8800;50.118;9.900;2023-04-25T03:38:23;9.45;;;5.30;;
17365;SDS011;8800;50.118;9.900;2023-04-25T03:40:49;9.88;;;5.63;;
17365;SDS011;8800;50.118;9.900;2023-04-25T03:43:16;8.85;;;4.68;;
17365;SDS011;8800;50.118;9.900;2023-04-25T03:45:42;11.10;;;6.10;;
17365;SDS011;8800;50.118;9.900;2023-04-25T03:48:09;9.55;;;6.03;;
17365;SDS011;8800;50.118;9.900;2023-04-25T03:50:35;10.73;;;6.05;;
17365;SDS011;8800;50.118;9.900;2023-04-25T03:53:01;10.50;;;6.65;;
17365;SDS011;8800;50.118;9.900;2023-04-25T03:55:29;10.30;;;6.70;;
17365;SDS011;8800;50.118;9.900;2023-04-25T03:57:55;9.80;;;6.55;;
17365;SDS011;8800;50.118;9.900;2023-04-25T04:00:23;11.60;;;6.68;;
17365;SDS011;8800;50.118;9.900;2023-04-25T04:02:49;11.85;;;6.68;;
17365;SDS011;8800;50.118;9.900;2023-04-25T04:05:15;10.65;;;6.85;;
17365;SDS011;8800;50.118;9.900;2023-04-25T04:07:42;10.93;;;6.88;;
17365;SDS011;8800;50.118;9.900;2023-04-25T04:10:09;11.75;;;7.13;;
17365;SDS011;8800;50.118;9.900;2023-04-25T04:12:36;12.73;;;7.97;;
17365;SDS011;8800;50.118;9.900;2023-04-25T04:15:03;12.30;;;8.00;;
17365;SDS011;8800;50.118;9.900;2023-04-25T04:17:30;12.18;;;7.53;;
17365;SDS011;8800;50.118;9.900;2023-04-25T04:19:56;12.23;;;7.55;;
17365;SDS011;8800;50.118;9.900;2023-04-25T04:22:23;12.88;;;7.05;;
17365;SDS011;8800;50.118;9.900;2023-04-25T04:24:49;15.55;;;7.65;;
17365;SDS011;8800;50.118;9.900;2023-04-25T04:27:16;13.00;;;7.78;;
17365;SDS011;8800;50.118;9.900;2023-04-25T04:29:45;10.15;;;6.93;;
17365;SDS011;8800;50.118;9.900;2023-04-25T04:32:12;11.80;;;6.72;;
17365;SDS011;8800;50.118;9.900;2023-04-25T04:34:38;11.77;;;6.30;;
17365;SDS011;8800;50.118;9.900;2023-04-25T04:37:06;10.80;;;6.25;;
17365;SDS011;8800;50.118;9.900;2023-04-25T04:39:32;12.27;;;6.03;;
17365;SDS011;8800;50.118;9.900;2023-04-25T04:41:59;10.45;;;5.40;;
17365;SDS011;8800;50.118;9.900;2023-04-25T04:44:26;10.63;;;5.82;;
17365;SDS011;8800;50.118;9.900;2023-04-25T04:46:54;10.45;;;6.47;;
17365;SDS011;8800;50.118;9.900;2023-04-25T04:49:21;12.52;;;6.40;;
17365;SDS011;8800;50.118;9.900;2023-04-25T04:51:48;11.45;;;6.63;;
17365;SDS011;8800;50.118;9.900;2023-04-25T04:54:14;11.63;;;6.90;;
17365;SDS011;8800;50.118;9.900;2023-04-25T04:56:41;13.98;;;6.38;;
17365;SDS011;8800;50.118;9.900;2023-04-25T04:59:07;10.35;;;6.53;;
17365;SDS011;8800;50.118;9.900;2023-04-25T05:01:34;11.45;;;6.03;;
17365;SDS011;8800;50.118;9.900;2023-04-25T05:04:02;10.35;;;6.60;;
17365;SDS011;8800;50.118;9.900;2023-04-25T05:06:29;11.32;;;6.60;;
17365;SDS011;8800;50.118;9.900;2023-04-25T05:08:56;15.63;;;7.95;;
17365;SDS011;8800;50.118;9.900;2023-04-25T05:11:22;16.10;;;7.55;;
17365;SDS011;8800;50.118;9.900;2023-04-25T05:13:49;14.95;;;7.63;;
17365;SDS011;8800;50.118;9.900;2023-04-25T05:16:15;12.93;;;7.40;;
17365;SDS011;8800;50.118;9.900;2023-04-25T05:18:41;12.90;;;7.65;;
17365;SDS011;8800;50.118;9.900;2023-04-25T05:21:09;15.13;;;8.25;;
17365;SDS011;8800;50.118;9.900;2023-04-25T05:23:36;13.73;;;7.70;;
17365;SDS011;8800;50.118;9.900;2023-04-25T05:26:02;14.90;;;7.43;;
17365;SDS011;8800;50.118;9.900;2023-04-25T05:28:29;16.23;;;7.75;;
17365;SDS011;8800;50.118;9.900;2023-04-25T05:30:56;17.63;;;7.50;;
17365;SDS011;8800;50.118;9.900;2023-04-25T05:33:22;16.48;;;8.25;;
17365;SDS011;8800;50.118;9.900;2023-04-25T05:35:49;11.57;;;6.55;;
17365;SDS011;8800;50.118;9.900;2023-04-25T05:38:17;16.92;;;6.20;;
17365;SDS011;8800;50.118;9.900;2023-04-25T05:40:44;14.32;;;7.05;;
17365;SDS011;8800;50.118;9.900;2023-04-25T05:43:11;14.07;;;6.75;;
17365;SDS011;8800;50.118;9.900;2023-04-25T05:45:49;11.60;;;6.75;;
17365;SDS011;8800;50.118;9.900;2023-04-25T05:48:16;13.77;;;6.78;;
17365;SDS011;8800;50.118;9.900;2023-04-25T05:50:42;8.73;;;4.80;;
17365;SDS011;8800;50.118;9.900;2023-04-25T05:53:09;8.55;;;3.72;;
17365;SDS011;8800;50.118;9.900;2023-04-25T05:55:37;11.38;;;4.38;;
17365;SDS011;8800;50.118;9.900;2023-04-25T05:58:04;13.82;;;4.40;;
17365;SDS011;8800;50.118;9.900;2023-04-25T06:00:31;11.65;;;4.03;;
17365;SDS011;8800;50.118;9.900;2023-04-25T06:02:58;11.75;;;4.40;;
17365;SDS011;8800;50.118;9.900;2023-04-25T06:05:24;7.63;;;3.42;;
17365;SDS011;8800;50.118;9.900;2023-04-25T06:07:51;9.30;;;3.67;;
17365;SDS011;8800;50.118;9.900;2023-04-25T06:10:17;12.70;;;3.95;;
17365;SDS011;8800;50.118;9.900;2023-04-25T06:12:45;10.43;;;3.85;;
17365;SDS011;8800;50.118;9.900;2023-04-25T06:15:12;12.50;;;4.55;;
17365;SDS011;8800;50.118;9.900;2023-04-25T06:17:38;10.70;;;3.90;;
17365;SDS011;8800;50.118;9.900;2023-04-25T06:20:05;7.53;;;3.45;;
17365;SDS011;8800;50.118;9.900;2023-04-25T06:22:32;10.63;;;3.85;;
17365;SDS011;8800;50.118;9.900;2023-04-25T06:24:58;9.77;;;3.85;;
17365;SDS011;8800;50.118;9.900;2023-04-25T06:27:25;9.93;;;3.50;;
17365;SDS011;8800;50.118;9.900;2023-04-25T06:29:53;8.50;;;3.40;;
17365;SDS011;8800;50.118;9.900;2023-04-25T06:32:20;12.10;;;4.00;;
17365;SDS011;8800;50.118;9.900;2023-04-25T06:34:46;7.07;;;3.40;;
17365;SDS011;8800;50.118;9.900;2023-04-25T06:37:12;10.50;;;3.42;;
17365;SDS011;8800;50.118;9.900;2023-04-25T06:39:39;12.52;;;3.90;;
17365;SDS011;8800;50.118;9.900;2023-04-25T06:42:05;7.53;;;3.20;;
17365;SDS011;8800;50.118;9.900;2023-04-25T06:44:31;13.55;;;3.60;;
17365;SDS011;8800;50.118;9.900;2023-04-25T06:46:59;8.48;;;3.22;;
17365;SDS011;8800;50.118;9.900;2023-04-25T06:49:25;9.15;;;3.25;;
17365;SDS011;8800;50.118;9.900;2023-04-25T06:51:52;6.15;;;2.67;;
17365;SDS011;8800;50.118;9.900;2023-04-25T06:54:18;6.45;;;2.80;;
17365;SDS011;8800;50.118;9.900;2023-04-25T06:56:45;5.32;;;2.42;;
17365;SDS011;8800;50.118;9.900;2023-04-25T06:59:12;6.30;;;2.45;;
17365;SDS011;8800;50.118;9.900;2023-04-25T07:01:38;6.03;;;2.28;;
17365;SDS011;8800;50.118;9.900;2023-04-25T07:04:06;5.70;;;2.45;;
17365;SDS011;8800;50.118;9.900;2023-04-25T07:06:33;9.18;;;2.53;;
17365;SDS011;8800;50.118;9.900;2023-04-25T07:08:59;4.10;;;2.53;;
17365;SDS011;8800;50.118;9.900;2023-04-25T07:11:25;11.15;;;2.65;;
17365;SDS011;8800;50.118;9.900;2023-04-25T07:13:52;4.97;;;2.20;;
17365;SDS011;8800;50.118;9.900;2023-04-25T07:16:18;6.20;;;2.45;;
17365;SDS011;8800;50.118;9.900;2023-04-25T07:18:45;5.90;;;2.15;;
17365;SDS011;8800;50.118;9.900;2023-04-25T07:21:12;7.45;;;2.47;;
17365;SDS011;8800;50.118;9.900;2023-04-25T07:23:39;4.85;;;1.85;;
17365;SDS011;8800;50.118;9.900;2023-04-25T07:26:05;4.05;;;2.03;;
17365;SDS011;8800;50.118;9.900;2023-04-25T07:28:32;4.03;;;1.85;;
17365;SDS011;8800;50.118;9.900;2023-04-25T07:30:58;3.53;;;1.80;;
17365;SDS011;8800;50.118;9.900;2023-04-25T07:33:25;3.20;;;1.80;;
17365;SDS011;8800;50.118;9.900;2023-04-25T07:35:51;3.15;;;1.80;;
17365;SDS011;8800;50.118;9.900;2023-04-25T07:38:19;3.10;;;1.70;;
17365;SDS011;8800;50.118;9.900;2023-04-25T07:40:46;3.58;;;1.70;;
17365;SDS011;8800;50.118;9.900;2023-04-25T07:43:13;7.28;;;1.70;;
17365;SDS011;8800;50.118;9.900;2023-04-25T07:45:41;3.08;;;1.75;;
17365;SDS011;8800;50.118;9.900;2023-04-25T07:48:08;3.55;;;2.13;;
17365;SDS011;8800;50.118;9.900;2023-04-25T07:50:35;2.58;;;1.75;;
17365;SDS011;8800;50.118;9.900;2023-04-25T07:53:01;4.35;;;1.90;;
17365;SDS011;8800;50.118;9.900;2023-04-25T07:55:29;3.83;;;1.98;;
17365;SDS011;8800;50.118;9.900;2023-04-25T07:57:55;3.67;;;1.90;;
17365;SDS011;8800;50.118;9.900;2023-04-25T08:00:22;4.10;;;2.28;;
17365;SDS011;8800;50.118;9.900;2023-04-25T08:02:48;3.92;;;1.95;;
17365;SDS011;8800;50.118;9.900;2023-04-25T08:05:15;4.47;;;2.22;;
17365;SDS011;8800;50.118;9.900;2023-04-25T08:07:42;3.70;;;1.98;;
17365;SDS011;8800;50.118;9.900;2023-04-25T08:10:08;2.47;;;1.75;;
17365;SDS011;8800;50.118;9.900;2023-04-25T08:12:36;2.92;;;1.80;;
17365;SDS011;8800;50.118;9.900;2023-04-25T08:15:03;5.63;;;2.05;;
17365;SDS011;8800;50.118;9.900;2023-04-25T08:17:30;3.95;;;1.90;;
17365;SDS011;8800;50.118;9.900;2023-04-25T08:19:57;4.50;;;2.53;;
17365;SDS011;8800;50.118;9.900;2023-04-25T08:22:23;4.40;;;1.83;;
17365;SDS011;8800;50.118;9.900;2023-04-25T08:24:49;3.40;;;1.42;;
17365;SDS011;8800;50.118;9.900;2023-04-25T08:27:17;3.00;;;1.48;;
17365;SDS011;8800;50.118;9.900;2023-04-25T08:29:47;2.90;;;1.60;;
17365;SDS011;8800;50.118;9.900;2023-04-25T08:32:13;3.50;;;1.83;;
17365;SDS011;8800;50.118;9.900;2023-04-25T08:34:40;2.00;;;1.38;;
17365;SDS011;8800;50.118;9.900;2023-04-25T08:37:07;2.47;;;1.30;;
17365;SDS011;8800;50.118;9.900;2023-04-25T08:39:34;2.55;;;1.50;;
17365;SDS011;8800;50.118;9.900;2023-04-25T08:42:01;3.13;;;1.65;;
17365;SDS011;8800;50.118;9.900;2023-04-25T08:44:29;2.92;;;1.30;;
17365;SDS011;8800;50.118;9.900;2023-04-25T08:46:58;2.35;;;1.15;;
17365;SDS011;8800;50.118;9.900;2023-04-25T08:49:24;2.10;;;1.30;;
17365;SDS011;8800;50.118;9.900;2023-04-25T08:51:51;3.67;;;1.65;;
17365;SDS011;8800;50.118;9.900;2023-04-25T08:54:18;1.85;;;1.30;;
17365;SDS011;8800;50.118;9.900;2023-04-25T08:56:46;1.70;;;1.20;;
17365;SDS011;8800;50.118;9.900;2023-04-25T08:59:14;2.58;;;1.30;;
17365;SDS011;8800;50.118;9.900;2023-04-25T09:01:40;2.53;;;1.35;;
17365;SDS011;8800;50.118;9.900;2023-04-25T09:04:08;2.03;;;1.45;;
17365;SDS011;8800;50.118;9.900;2023-04-25T09:06:34;3.75;;;1.40;;
17365;SDS011;8800;50.118;9.900;2023-04-25T09:09:01;3.78;;;1.60;;
17365;SDS011;8800;50.118;9.900;2023-04-25T09:11:29;3.25;;;1.48;;
17365;SDS011;8800;50.118;9.900;2023-04-25T09:14:09;2.67;;;1.50;;
17365;SDS011;8800;50.118;9.900;2023-04-25T09:16:36;2.45;;;1.50;;
17365;SDS011;8800;50.118;9.900;2023-04-25T09:19:24;3.53;;;1.63;;
17365;SDS011;8800;50.118;9.900;2023-04-25T09:21:51;4.57;;;1.65;;
17365;SDS011;8800;50.118;9.900;2023-04-25T09:24:20;3.13;;;1.70;;
17365;SDS011;8800;50.118;9.900;2023-04-25T09:26:55;3.92;;;1.80;;
17365;SDS011;8800;50.118;9.900;2023-04-25T09:29:24;3.83;;;1.92;;
17365;SDS011;8800;50.118;9.900;2023-04-25T09:31:57;4.43;;;2.13;;
17365;SDS011;8800;50.118;9.900;2023-04-25T09:34:40;3.03;;;1.70;;
17365;SDS011;8800;50.118;9.900;2023-04-25T09:37:07;4.18;;;2.00;;
17365;SDS011;8800;50.118;9.900;2023-04-25T09:39:34;3.95;;;1.70;;
17365;SDS011;8800;50.118;9.900;2023-04-25T09:42:00;2.58;;;2.00;;
17365;SDS011;8800;50.118;9.900;2023-04-25T09:44:28;3.45;;;2.10;;
17365;SDS011;8800;50.118;9.900;2023-04-25T09:46:55;5.47;;;2.10;;
17365;SDS011;8800;50.118;9.900;2023-04-25T09:49:22;4.68;;;2.60;;
17365;SDS011;8800;50.118;9.900;2023-04-25T09:51:55;4.85;;;2.60;;
17365;SDS011;8800;50.118;9.900;2023-04-25T09:54:22;4.03;;;2.10;;
17365;SDS011;8800;50.118;9.900;2023-04-25T09:56:49;4.53;;;2.38;;
17365;SDS011;8800;50.118;9.900;2023-04-25T09:59:17;4.15;;;2.13;;
17365;SDS011;8800;50.118;9.900;2023-04-25T10:01:45;6.72;;;2.25;;
17365;SDS011;8800;50.118;9.900;2023-04-25T10:04:12;4.28;;;2.00;;
17365;SDS011;8800;50.118;9.900;2023-04-25T10:06:38;2.75;;;1.90;;
17365;SDS011;8800;50.118;9.900;2023-04-25T10:09:09;3.75;;;2.33;;
17365;SDS011;8800;50.118;9.900;2023-04-25T10:11:36;4.60;;;2.10;;
17365;SDS011;8800;50.118;9.900;2023-04-25T10:14:04;6.85;;;2.10;;
17365;SDS011;8800;50.118;9.900;2023-04-25T10:16:30;2.53;;;1.88;;
17365;SDS011;8800;50.118;9.900;2023-04-25T10:18:57;3.65;;;1.98;;
17365;SDS011;8800;50.118;9.900;2023-04-25T10:21:23;5.35;;;1.98;;
17365;SDS011;8800;50.118;9.900;2023-04-25T10:23:52;2.90;;;1.98;;
17365;SDS011;8800;50.118;9.900;2023-04-25T10:26:20;2.97;;;2.13;;
17365;SDS011;8800;50.118;9.900;2023-04-25T10:28:56;3.97;;;2.00;;
17365;SDS011;8800;50.118;9.900;2023-04-25T10:31:22;6.20;;;2.40;;
17365;SDS011;8800;50.118;9.900;2023-04-25T10:33:49;3.03;;;1.80;;
17365;SDS011;8800;50.118;9.900;2023-04-25T10:36:17;3.47;;;2.03;;
17365;SDS011;8800;50.118;9.900;2023-04-25T10:38:44;3.08;;;2.00;;
17365;SDS011;8800;50.118;9.900;2023-04-25T10:41:11;4.97;;;2.10;;
17365;SDS011;8800;50.118;9.900;2023-04-25T10:43:39;2.97;;;1.85;;
17365;SDS011;8800;50.118;9.900;2023-04-25T10:46:13;3.53;;;2.10;;
17365;SDS011;8800;50.118;9.900;2023-04-25T10:48:43;3.25;;;1.90;;
17365;SDS011;8800;50.118;9.900;2023-04-25T10:51:11;4.28;;;2.08;;
17365;SDS011;8800;50.118;9.900;2023-04-25T10:53:38;4.78;;;2.33;;
17365;SDS011;8800;50.118;9.900;2023-04-25T10:56:09;3.05;;;1.80;;
17365;SDS011;8800;50.118;9.900;2023-04-25T10:58:35;3.45;;;1.80;;
17365;SDS011;8800;50.118;9.900;2023-04-25T11:01:03;6.68;;;2.10;;
17365;SDS011;8800;50.118;9.900;2023-04-25T11:03:29;2.35;;;1.58;;
17365;SDS011;8800;50.118;9.900;2023-04-25T11:05:56;4.28;;;1.50;;
17365;SDS011;8800;50.118;9.900;2023-04-25T11:08:26;3.35;;;1.95;;
17365;SDS011;8800;50.118;9.900;2023-04-25T11:10:59;2.95;;;1.40;;
17365;SDS011;8800;50.118;9.900;2023-04-25T11:13:28;2.97;;;1.65;;
17365;SDS011;8800;50.118;9.900;2023-04-25T11:15:55;7.28;;;2.25;;
17365;SDS011;8800;50.118;9.900;2023-04-25T11:18:25;2.90;;;1.80;;
17365;SDS011;8800;50.118;9.900;2023-04-25T11:20:52;4.93;;;1.70;;
17365;SDS011;8800;50.118;9.900;2023-04-25T11:23:18;3.42;;;1.92;;
17365;SDS011;8800;50.118;9.900;2023-04-25T11:25:44;2.95;;;1.90;;
17365;SDS011;8800;50.118;9.900;2023-04-25T11:28:11;3.33;;;2.10;;
17365;SDS011;8800;50.118;9.900;2023-04-25T11:30:37;3.80;;;1.80;;
17365;SDS011;8800;50.118;9.900;2023-04-25T11:33:05;2.88;;;1.98;;
17365;SDS011;8800;50.118;9.900;2023-04-25T11:35:33;3.88;;;1.80;;
17365;SDS011;8800;50.118;9.900;2023-04-25T11:38:01;2.72;;;1.67;;
17365;SDS011;8800;50.118;9.900;2023-04-25T11:40:27;3.83;;;1.85;;
17365;SDS011;8800;50.118;9.900;2023-04-25T11:42:53;3.10;;;1.70;;
17365;SDS011;8800;50.118;9.900;2023-04-25T11:45:20;3.08;;;1.60;;
17365;SDS011;8800;50.118;9.900;2023-04-25T11:47:46;8.32;;;4.00;;
17365;SDS011;8800;50.118;9.900;2023-04-25T11:50:13;4.28;;;2.15;;
17365;SDS011;8800;50.118;9.900;2023-04-25T11:52:42;5.55;;;2.15;;
17365;SDS011;8800;50.118;9.900;2023-04-25T11:55:09;3.13;;;1.80;;
17365;SDS011;8800;50.118;9.900;2023-04-25T11:57:37;2.75;;;1.98;;
17365;SDS011;8800;50.118;9.900;2023-04-25T12:00:11;4.22;;;2.00;;
17365;SDS011;8800;50.118;9.900;2023-04-25T12:02:40;3.63;;;2.00;;
17365;SDS011;8800;50.118;9.900;2023-04-25T12:05:07;5.45;;;2.70;;
17365;SDS011;8800;50.118;9.900;2023-04-25T12:07:34;5.32;;;2.33;;
17365;SDS011;8800;50.118;9.900;2023-04-25T12:10:05;4.53;;;2.28;;
17365;SDS011;8800;50.118;9.900;2023-04-25T12:12:33;3.13;;;2.20;;
17365;SDS011;8800;50.118;9.900;2023-04-25T12:15:07;4.15;;;2.00;;
17365;SDS011;8800;50.118;9.900;2023-04-25T12:17:34;4.63;;;2.30;;
17365;SDS011;8800;50.118;9.900;2023-04-25T12:20:05;4.82;;;1.95;;
17365;SDS011;8800;50.118;9.900;2023-04-25T12:22:32;2.72;;;1.77;;
17365;SDS011;8800;50.118;9.900;2023-04-25T12:24:58;4.80;;;1.90;;
17365;SDS011;8800;50.118;9.900;2023-04-25T12:27:26;5.75;;;2.10;;
17365;SDS011;8800;50.118;9.900;2023-04-25T12:29:53;5.88;;;2.10;;
17365;SDS011;8800;50.118;9.900;2023-04-25T12:32:20;3.67;;;2.25;;
17365;SDS011;8800;50.118;9.900;2023-04-25T12:34:47;5.43;;;2.25;;
17365;SDS011;8800;50.118;9.900;2023-04-25T12:37:13;5.88;;;2.15;;
17365;SDS011;8800;50.118;9.900;2023-04-25T12:39:40;5.82;;;1.90;;
17365;SDS011;8800;50.118;9.900;2023-04-25T12:42:06;5.22;;;1.80;;
17365;SDS011;8800;50.118;9.900;2023-04-25T12:44:37;3.38;;;1.45;;
17365;SDS011;8800;50.118;9.900;2023-04-25T12:47:04;3.92;;;2.00;;
17365;SDS011;8800;50.118;9.900;2023-04-25T12:49:31;5.32;;;1.90;;
17365;SDS011;8800;50.118;9.900;2023-04-25T12:51:58;4.13;;;1.73;;
17365;SDS011;8800;50.118;9.900;2023-04-25T12:54:24;2.75;;;1.63;;
17365;SDS011;8800;50.118;9.900;2023-04-25T12:56:51;4.90;;;1.70;;
17365;SDS011;8800;50.118;9.900;2023-04-25T12:59:17;2.83;;;1.73;;
17365;SDS011;8800;50.118;9.900;2023-04-25T13:01:46;1.85;;;1.20;;
17365;SDS011;8800;50.118;9.900;2023-04-25T13:04:13;2.67;;;1.63;;
17365;SDS011;8800;50.118;9.900;2023-04-25T13:06:39;3.42;;;1.45;;
17365;SDS011;8800;50.118;9.900;2023-04-25T13:09:05;6.20;;;1.80;;
17365;SDS011;8800;50.118;9.900;2023-04-25T13:11:33;4.00;;;1.60;;
17365;SDS011;8800;50.118;9.900;2023-04-25T13:14:00;5.45;;;1.60;;
17365;SDS011;8800;50.118;9.900;2023-04-25T13:16:26;5.00;;;1.48;;
17365;SDS011;8800;50.118;9.900;2023-04-25T13:18:54;4.13;;;1.80;;
17365;SDS011;8800;50.118;9.900;2023-04-25T13:21:21;4.65;;;1.60;;
17365;SDS011;8800;50.118;9.900;2023-04-25T13:23:47;3.95;;;1.55;;
17365;SDS011;8800;50.118;9.900;2023-04-25T13:26:14;5.03;;;1.65;;
17365;SDS011;8800;50.118;9.900;2023-04-25T13:28:40;4.25;;;1.50;;
17365;SDS011;8800;50.118;9.900;2023-04-25T13:31:07;6.95;;;2.75;;
17365;SDS011;8800;50.118;9.900;2023-04-25T13:33:33;7.47;;;1.88;;
17365;SDS011;8800;50.118;9.900;2023-04-25T13:36:01;6.63;;;1.70;;
17365;SDS011;8800;50.118;9.900;2023-04-25T13:38:28;6.07;;;1.60;;
17365;SDS011;8800;50.118;9.900;2023-04-25T13:40:54;4.18;;;1.63;;
17365;SDS011;8800;50.118;9.900;2023-04-25T13:43:21;3.58;;;1.90;;
17365;SDS011;8800;50.118;9.900;2023-04-25T13:45:47;6.30;;;1.52;;
17365;SDS011;8800;50.118;9.900;2023-04-25T13:48:14;5.15;;;1.60;;
17365;SDS011;8800;50.118;9.900;2023-04-25T13:50:41;5.47;;;1.67;;
17365;SDS011;8800;50.118;9.900;2023-04-25T13:53:08;4.47;;;1.75;;
17365;SDS011;8800;50.118;9.900;2023-04-25T13:55:35;4.93;;;1.80;;
17365;SDS011;8800;50.118;9.900;2023-04-25T13:58:02;5.20;;;1.90;;
17365;SDS011;8800;50.118;9.900;2023-04-25T14:00:32;3.75;;;1.77;;
17365;SDS011;8800;50.118;9.900;2023-04-25T14:02:59;4.75;;;2.20;;
17365;SDS011;8800;50.118;9.900;2023-04-25T14:05:25;7.50;;;1.70;;
17365;SDS011;8800;50.118;9.900;2023-04-25T14:07:52;6.13;;;1.83;;
17365;SDS011;8800;50.118;9.900;2023-04-25T14:10:20;7.70;;;1.75;;
17365;SDS011;8800;50.118;9.900;2023-04-25T14:12:46;5.28;;;1.85;;
17365;SDS011;8800;50.118;9.900;2023-04-25T14:15:12;6.15;;;1.65;;
17365;SDS011;8800;50.118;9.900;2023-04-25T14:17:39;3.97;;;1.90;;
17365;SDS011;8800;50.118;9.900;2023-04-25T14:20:08;7.07;;;1.90;;
17365;SDS011;8800;50.118;9.900;2023-04-25T14:22:35;6.53;;;1.80;;
17365;SDS011;8800;50.118;9.900;2023-04-25T14:25:06;8.57;;;1.92;;
17365;SDS011;8800;50.118;9.900;2023-04-25T14:27:34;4.90;;;1.70;;
17365;SDS011;8800;50.118;9.900;2023-04-25T14:30:01;3.05;;;1.65;;
17365;SDS011;8800;50.118;9.900;2023-04-25T14:32:27;4.07;;;1.98;;
17365;SDS011;8800;50.118;9.900;2023-04-25T14:34:53;8.30;;;1.92;;
17365;SDS011;8800;50.118;9.900;2023-04-25T14:37:20;5.63;;;1.92;;
17365;SDS011;8800;50.118;9.900;2023-04-25T14:39:46;5.50;;;1.55;;
17365;SDS011;8800;50.118;9.900;2023-04-25T14:42:13;7.25;;;1.70;;
17365;SDS011;8800;50.118;9.900;2023-04-25T14:44:40;3.50;;;1.75;;
17365;SDS011;8800;50.118;9.900;2023-04-25T14:47:07;6.45;;;2.42;;
17365;SDS011;8800;50.118;9.900;2023-04-25T14:49:33;5.45;;;2.05;;
17365;SDS011;8800;50.118;9.900;2023-04-25T14:52:00;3.30;;;1.70;;
17365;SDS011;8800;50.118;9.900;2023-04-25T14:54:26;5.38;;;2.00;;
17365;SDS011;8800;50.118;9.900;2023-04-25T14:56:53;5.55;;;2.13;;